Time;durP1;ratioP1;P1;durP2;ratioP2;P2;SDS_P1;SDS_P2;PMS_P1;PMS_P2;Temp;Humidity;BMP_temperature;BMP_pressure;BME280_temperature;BME280_humidity;BME280_pressure;Samples;Min_cycle;Max_cycle;Signal;HPM_P1;HPM_P2
2022/01/17 00:00:53;;;;;;;;;;;;;;;13.45;50.39;103203.75;5083262;28;19947;-82
2022/01/17 00:03:24;;;;;;;;;;;;;;;13.91;48.41;103210.00;5065921;28;19924;-85
2022/01/17 00:05:49;;;;;;;;;;;;;;;12.68;51.71;103205.28;5065511;28;19935;-83
2022/01/17 00:08:16;;;;;;;;;;;;;;;12.98;51.62;103203.78;5082207;28;20370;-86
2022/01/17 00:10:41;;;;;;;;;;;;;;;12.67;51.54;103198.06;5065008;28;19917;-85
2022/01/17 00:13:10;;;;;;;;;;;;;;;12.91;51.40;103197.59;5065063;28;20015;-85
2022/01/17 00:15:46;;;;;;;;;;;;;;;12.17;52.50;103209.78;5083539;28;19917;-86
2022/01/17 00:20:37;;;;;;;;;;;;;;;12.55;51.21;103215.47;5084567;28;19921;-85
2022/01/17 00:23:02;;;;;;;;;;;;;;;12.21;51.68;103221.47;5065367;28;19989;-82
2022/01/17 00:25:27;;;;;;;;;;;;;;;12.84;50.21;103224.91;5064686;28;19925;-85
2022/01/17 00:27:52;;;;;;;;;;;;;;;12.33;50.75;103221.25;5083618;28;19923;-83
2022/01/17 00:30:18;;;;;;;;;;;;;;;12.29;51.47;103224.97;5065353;28;19952;-84
2022/01/17 00:32:43;;;;;;;;;;;;;;;11.80;52.20;103229.28;5065423;28;20286;-84
2022/01/17 00:35:08;;;;;;;;;;;;;;;11.86;52.46;103236.47;5065657;28;19924;-84
2022/01/17 00:37:34;;;;;;;;;;;;;;;12.07;51.81;103231.66;5065741;28;19977;-85
2022/01/17 00:39:59;;;;;;;;;;;;;;;12.09;51.20;103219.84;5081942;28;20362;-83
2022/01/17 00:42:24;;;;;;;;;;;;;;;12.04;51.22;103216.31;5065144;28;20362;-87
2022/01/17 00:44:50;;;;;;;;;;;;;;;12.01;51.25;103210.94;5048509;28;20320;-84
2022/01/17 00:47:15;;;;;;;;;;;;;;;12.11;51.38;103203.53;5065673;28;19916;-84
2022/01/17 00:49:41;;;;;;;;;;;;;;;12.54;49.83;103201.00;5066555;28;19916;-83
2022/01/17 00:52:06;;;;;;;;;;;;;;;12.05;51.28;103221.72;5066123;28;19935;-85
2022/01/17 00:54:32;;;;;;;;;;;;;;;12.28;51.04;103233.16;5066462;28;19925;-83
2022/01/17 00:56:57;;;;;;;;;;;;;;;12.76;49.56;103219.63;5066685;28;19940;-85
2022/01/17 00:59:23;;;;;;;;;;;;;;;12.83;49.29;103220.41;5067824;28;19916;-84
2022/01/17 01:01:48;;;;;;;;;;;;;;;12.49;50.67;103218.31;5067448;28;19965;-85
2022/01/17 01:04:13;;;;;;;;;;;;;;;12.48;50.25;103213.78;5066805;28;19938;-84
2022/01/17 01:06:38;;;;;;;;;;;;;;;12.32;50.45;103208.63;5067090;28;19935;-84
2022/01/17 01:09:04;;;;;;;;;;;;;;;11.41;52.09;103201.81;5066432;28;19927;-84
2022/01/17 01:11:29;;;;;;;;;;;;;;;12.13;51.42;103196.28;5064529;28;19920;-87
2022/01/17 01:13:55;;;;;;;;;;;;;;;12.32;50.43;103196.88;5064523;28;19916;-83
2022/01/17 01:29:32;;;;;;;;;;;;;;;11.82;51.36;103230.19;5082409;28;19927;-85
2022/01/17 01:32:05;;;;;;;;;;;;;;;12.34;50.34;103233.94;5082151;28;19948;-85
2022/01/17 01:34:35;;;;;;;;;;;;;;;12.56;49.62;103237.19;5063857;28;19943;-84
2022/01/17 01:37:03;;;;;;;;;;;;;;;12.64;49.02;103226.19;5082267;28;19920;-85
2022/01/17 01:39:28;;;;;;;;;;;;;;;11.98;50.69;103244.44;5063599;28;20274;-84
2022/01/17 01:41:53;;;;;;;;;;;;;;;12.30;50.51;103245.75;5080017;28;19924;-85
2022/01/17 01:44:20;;;;;;;;;;;;;;;12.18;50.57;103244.16;5063616;28;20389;-84
2022/01/17 01:46:46;;;;;;;;;;;;;;;11.80;51.40;103236.53;5065631;28;19916;-84
2022/01/17 01:49:12;;;;;;;;;;;;;;;12.26;51.27;103238.59;5068626;28;19917;-84
2022/01/17 01:51:38;;;;;;;;;;;;;;;12.49;50.02;103250.91;5087828;28;19920;-84
2022/01/17 01:54:04;;;;;;;;;;;;;;;12.68;49.75;103251.44;5070779;28;19931;-84
2022/01/17 01:56:30;;;;;;;;;;;;;;;13.11;48.09;103248.81;5070626;28;19920;-83
2022/01/17 01:58:55;;;;;;;;;;;;;;;12.68;49.03;103244.22;5070676;28;19922;-83
2022/01/17 02:01:21;;;;;;;;;;;;;;;13.37;47.77;103241.09;5069025;28;19923;-83
2022/01/17 02:03:46;;;;;;;;;;;;;;;13.50;46.96;103245.38;5068362;28;19921;-87
2022/01/17 02:06:11;;;;;;;;;;;;;;;13.06;48.38;103255.28;5069095;28;20015;-85
2022/01/17 02:08:36;;;;;;;;;;;;;;;12.74;49.09;103244.09;5067596;28;19917;-84
2022/01/17 02:11:02;;;;;;;;;;;;;;;12.79;48.57;103240.38;5068152;28;19916;-84
2022/01/17 02:13:27;;;;;;;;;;;;;;;12.67;49.36;103230.66;5086481;28;19921;-84
2022/01/17 02:15:59;;;;;;;;;;;;;;;12.88;48.58;103234.81;5068821;28;20361;-86
2022/01/17 02:18:30;;;;;;;;;;;;;;;12.92;48.48;103222.94;5067610;28;19917;-84
2022/01/17 02:23:39;;;;;;;;;;;;;;;12.96;48.75;103218.34;5085583;28;19974;-87
2022/01/17 02:26:06;;;;;;;;;;;;;;;12.76;48.92;103225.06;5067955;28;20011;-85
2022/01/17 02:28:35;;;;;;;;;;;;;;;12.33;50.24;103231.25;5067760;28;19917;-84
2022/01/17 02:31:01;;;;;;;;;;;;;;;12.43;50.53;103241.03;5085933;28;20366;-84
2022/01/17 02:33:27;;;;;;;;;;;;;;;12.79;49.73;103229.53;5067821;28;19924;-83
2022/01/17 02:35:52;;;;;;;;;;;;;;;12.33;50.34;103234.84;5068461;28;19917;-84
2022/01/17 02:38:17;;;;;;;;;;;;;;;11.89;51.50;103233.69;5067927;28;20026;-84
2022/01/17 02:40:42;;;;;;;;;;;;;;;12.00;51.87;103229.06;5067178;28;19916;-84
2022/01/17 02:43:08;;;;;;;;;;;;;;;12.27;50.59;103239.47;5068030;28;19923;-84
2022/01/17 02:48:18;;;;;;;;;;;;;;;12.38;50.33;103246.53;5086896;28;19984;-84
2022/01/17 02:50:43;;;;;;;;;;;;;;;12.84;49.68;103242.09;5069095;28;19924;-85
2022/01/17 02:53:09;;;;;;;;;;;;;;;13.07;48.89;103246.19;5067610;28;19925;-84
2022/01/17 02:55:35;;;;;;;;;;;;;;;13.12;48.95;103247.03;5068383;28;19917;-84
2022/01/17 02:58:00;;;;;;;;;;;;;;;12.44;51.34;103252.78;5067472;28;19920;-84
2022/01/17 03:00:26;;;;;;;;;;;;;;;12.47;50.75;103247.28;5067446;28;19916;-86
2022/01/17 03:02:51;;;;;;;;;;;;;;;12.76;50.29;103244.97;5084629;28;19917;-86
2022/01/17 03:05:17;;;;;;;;;;;;;;;12.39;51.45;103247.41;5067621;28;19917;-86
2022/01/17 03:07:43;;;;;;;;;;;;;;;12.60;50.93;103251.59;5067413;28;19917;-84
2022/01/17 03:10:16;;;;;;;;;;;;;;;12.52;50.74;103250.84;5068983;28;19924;-84
2022/01/17 03:12:41;;;;;;;;;;;;;;;12.08;52.44;103247.00;5068485;28;19920;-86
2022/01/17 03:15:07;;;;;;;;;;;;;;;12.47;51.69;103245.50;5068373;28;19923;-86
2022/01/17 03:17:32;;;;;;;;;;;;;;;12.72;51.22;103245.03;5067214;28;20386;-84
2022/01/17 03:19:57;;;;;;;;;;;;;;;12.58;51.93;103237.16;5067251;28;19916;-84
2022/01/17 03:22:23;;;;;;;;;;;;;;;11.52;55.18;103236.94;5067700;28;19917;-84
2022/01/17 03:24:48;;;;;;;;;;;;;;;12.39;53.24;103239.28;5067929;28;19973;-86
2022/01/17 03:27:13;;;;;;;;;;;;;;;12.23;53.98;103239.53;5067636;28;19917;-85
2022/01/17 03:29:38;;;;;;;;;;;;;;;11.85;55.94;103226.50;5068233;28;19916;-84
2022/01/17 03:32:04;;;;;;;;;;;;;;;12.29;54.57;103233.13;5068023;28;20390;-85
2022/01/17 03:34:29;;;;;;;;;;;;;;;11.71;56.07;103234.84;5067622;28;19923;-85
2022/01/17 03:36:55;;;;;;;;;;;;;;;11.94;56.32;103228.22;5068722;28;20389;-83
2022/01/17 03:39:20;;;;;;;;;;;;;;;12.05;57.17;103208.16;5068326;28;19943;-86
2022/01/17 03:41:45;;;;;;;;;;;;;;;11.93;58.72;103221.91;5067992;28;19917;-84
2022/01/17 03:44:11;;;;;;;;;;;;;;;11.99;56.42;103223.66;5068004;28;19932;-84
2022/01/17 03:46:36;;;;;;;;;;;;;;;12.14;57.09;103233.34;5085938;28;19924;-84
2022/01/17 03:49:02;;;;;;;;;;;;;;;11.83;57.53;103231.06;5066821;28;19987;-85
2022/01/17 03:51:28;;;;;;;;;;;;;;;12.30;56.07;103223.16;5067383;28;19917;-85
2022/01/17 03:53:53;;;;;;;;;;;;;;;11.64;59.18;103209.66;5084837;28;19924;-85
2022/01/17 03:56:18;;;;;;;;;;;;;;;11.80;59.39;103214.84;5067778;28;19999;-83
2022/01/17 03:58:44;;;;;;;;;;;;;;;11.57;59.46;103221.50;5085615;28;19963;-86
2022/01/17 04:01:10;;;;;;;;;;;;;;;11.95;59.03;103213.75;5067764;28;19917;-85
2022/01/17 04:03:35;;;;;;;;;;;;;;;11.89;58.94;103222.84;5067653;28;19916;-84
2022/01/17 04:06:00;;;;;;;;;;;;;;;12.58;56.00;103210.88;5083553;28;19969;-84
2022/01/17 04:08:25;;;;;;;;;;;;;;;12.45;56.59;103217.44;5067001;28;19916;-83
2022/01/17 04:10:51;;;;;;;;;;;;;;;12.24;57.25;103218.72;5066592;28;19928;-86
2022/01/17 04:13:16;;;;;;;;;;;;;;;11.76;59.81;103221.22;5066804;28;20007;-85
2022/01/17 04:15:42;;;;;;;;;;;;;;;11.82;59.81;103226.56;5066857;28;19906;-83
2022/01/17 04:18:08;;;;;;;;;;;;;;;12.01;59.36;103241.69;5066224;28;19916;-85
2022/01/17 04:20:34;;;;;;;;;;;;;;;11.58;60.99;103242.28;5065369;28;19936;-85
2022/01/17 04:23:02;;;;;;;;;;;;;;;11.93;60.25;103243.63;5065711;28;19995;-85
2022/01/17 04:25:29;;;;;;;;;;;;;;;11.92;58.18;103249.94;5066586;28;19921;-84
2022/01/17 04:27:55;;;;;;;;;;;;;;;12.00;58.64;103255.25;5084515;28;20049;-84
2022/01/17 04:30:20;;;;;;;;;;;;;;;12.39;58.15;103258.28;5066401;28;19921;-85
2022/01/17 04:32:46;;;;;;;;;;;;;;;11.95;59.36;103259.88;5084113;28;19926;-84
2022/01/17 04:35:11;;;;;;;;;;;;;;;11.93;59.50;103254.47;5066273;28;19917;-84
2022/01/17 04:37:37;;;;;;;;;;;;;;;12.33;58.58;103256.56;5066055;28;20017;-85
2022/01/17 04:40:02;;;;;;;;;;;;;;;11.63;60.97;103259.38;5066561;28;20458;-81
2022/01/17 04:42:28;;;;;;;;;;;;;;;12.11;58.99;103256.00;5067266;28;19975;-84
2022/01/17 04:45:10;;;;;;;;;;;;;;;11.80;59.80;103248.28;5064198;28;19968;-85
2022/01/17 04:47:37;;;;;;;;;;;;;;;12.17;58.27;103249.59;5063594;28;19974;-84
2022/01/17 04:50:05;;;;;;;;;;;;;;;12.08;59.08;103242.50;5062694;28;22486;-85
2022/01/17 04:52:30;;;;;;;;;;;;;;;11.96;60.03;103249.00;5062319;28;19928;-84
2022/01/17 04:55:00;;;;;;;;;;;;;;;11.57;60.30;103254.03;5063469;28;20295;-84
2022/01/17 04:57:25;;;;;;;;;;;;;;;11.33;62.05;103257.94;5063988;28;19923;-84
2022/01/17 04:59:51;;;;;;;;;;;;;;;12.11;60.00;103257.81;5061249;28;19917;-84
2022/01/17 05:02:16;;;;;;;;;;;;;;;11.78;60.35;103255.56;5062826;28;20016;-83
2022/01/17 05:04:41;;;;;;;;;;;;;;;11.59;60.69;103262.13;5063086;28;20366;-84
2022/01/17 05:07:07;;;;;;;;;;;;;;;11.24;63.34;103263.47;5062789;28;19917;-85
2022/01/17 05:09:32;;;;;;;;;;;;;;;11.35;63.44;103269.66;5063538;28;19968;-84
2022/01/17 05:11:57;;;;;;;;;;;;;;;11.99;61.10;103259.81;5063567;28;19916;-86
2022/01/17 05:14:24;;;;;;;;;;;;;;;11.86;61.01;103269.88;5060070;28;19924;-84
2022/01/17 05:16:57;;;;;;;;;;;;;;;11.67;61.31;103258.41;5060535;28;19923;-85
2022/01/17 05:22:05;;;;;;;;;;;;;;;11.81;61.13;103279.03;5061507;28;20019;-85
2022/01/17 05:24:31;;;;;;;;;;;;;;;11.97;60.13;103269.78;5059954;28;19960;-84
2022/01/17 05:26:56;;;;;;;;;;;;;;;12.01;60.32;103268.81;5059356;28;19921;-86
2022/01/17 05:29:21;;;;;;;;;;;;;;;12.28;59.96;103265.72;5060256;28;19917;-84
2022/01/17 05:31:47;;;;;;;;;;;;;;;11.33;63.58;103276.91;5060914;28;19924;-85
2022/01/17 05:34:12;;;;;;;;;;;;;;;11.76;62.25;103287.22;5059742;28;20377;-84
2022/01/17 05:36:37;;;;;;;;;;;;;;;12.11;60.89;103274.09;5058527;28;19921;-86
2022/01/17 05:39:03;;;;;;;;;;;;;;;12.30;59.81;103274.72;5057955;28;19928;-86
2022/01/17 05:41:28;;;;;;;;;;;;;;;12.33;59.75;103263.81;5058990;28;19920;-84
2022/01/17 05:43:53;;;;;;;;;;;;;;;12.03;61.06;103257.94;5059416;28;20019;-86
2022/01/17 05:46:18;;;;;;;;;;;;;;;11.45;63.54;103255.06;5063359;28;19920;-85
2022/01/17 05:48:43;;;;;;;;;;;;;;;11.01;66.20;103256.50;5061230;28;20266;-85
2022/01/17 05:51:09;;;;;;;;;;;;;;;11.59;64.51;103244.03;5064188;28;20005;-87
2022/01/17 05:53:34;;;;;;;;;;;;;;;11.59;64.28;103249.47;5064568;28;20356;-86
2022/01/17 05:56:00;;;;;;;;;;;;;;;12.19;60.85;103251.34;5066159;28;19924;-88
2022/01/17 05:58:25;;;;;;;;;;;;;;;11.68;62.67;103270.16;5063482;28;19919;-88
2022/01/17 06:00:52;;;;;;;;;;;;;;;11.95;62.12;103278.88;5062794;28;19906;-87
2022/01/17 06:03:17;;;;;;;;;;;;;;;12.05;61.85;103276.00;5063091;28;19983;-88
2022/01/17 06:05:42;;;;;;;;;;;;;;;12.14;60.27;103265.91;5062572;28;19952;-85
2022/01/17 06:08:07;;;;;;;;;;;;;;;11.78;62.57;103273.66;5063201;28;19917;-89
2022/01/17 06:10:33;;;;;;;;;;;;;;;11.98;60.71;103284.25;5063928;28;19923;-86
2022/01/17 06:13:01;;;;;;;;;;;;;;;12.13;60.20;103289.44;5063607;28;19916;-87
2022/01/17 06:15:26;;;;;;;;;;;;;;;11.85;60.36;103299.75;5063528;28;19939;-86
2022/01/17 06:17:51;;;;;;;;;;;;;;;11.86;61.02;103296.13;5060269;28;19909;-86
2022/01/17 06:20:16;;;;;;;;;;;;;;;12.00;60.57;103290.53;5060240;28;19936;-86
2022/01/17 06:22:41;;;;;;;;;;;;;;;11.44;62.03;103301.19;5057318;28;19923;-85
2022/01/17 06:25:07;;;;;;;;;;;;;;;11.59;62.07;103308.22;5058392;28;19931;-87
2022/01/17 06:27:34;;;;;;;;;;;;;;;11.63;62.34;103305.47;5059730;28;19916;-85
2022/01/17 06:29:59;;;;;;;;;;;;;;;12.43;59.32;103308.91;5062424;28;20266;-85
2022/01/17 06:32:25;;;;;;;;;;;;;;;12.09;60.61;103298.53;5062351;28;20433;-87
2022/01/17 06:34:50;;;;;;;;;;;;;;;12.03;60.20;103301.34;5080211;28;20327;-85
2022/01/17 06:37:15;;;;;;;;;;;;;;;11.62;61.53;103303.66;5061897;28;20354;-88
2022/01/17 06:39:41;;;;;;;;;;;;;;;11.87;60.91;103314.22;5061436;28;20427;-85
2022/01/17 06:42:06;;;;;;;;;;;;;;;11.84;60.16;103316.97;5062334;28;19916;-85
2022/01/17 06:44:31;;;;;;;;;;;;;;;12.31;58.44;103301.84;5058822;28;19928;-86
2022/01/17 06:46:57;;;;;;;;;;;;;;;11.38;62.75;103294.00;5059174;28;19917;-86
2022/01/17 06:49:22;;;;;;;;;;;;;;;11.55;60.98;103301.03;5057972;28;19913;-84
2022/01/17 06:51:47;;;;;;;;;;;;;;;11.78;61.05;103303.47;5058135;28;19916;-84
2022/01/17 06:54:12;;;;;;;;;;;;;;;11.24;62.36;103318.56;5058430;28;19921;-84
2022/01/17 06:56:43;;;;;;;;;;;;;;;11.58;61.24;103344.38;5061475;28;20012;-85
2022/01/17 06:59:10;;;;;;;;;;;;;;;11.84;61.13;103350.41;5060048;28;19967;-85
2022/01/17 07:01:38;;;;;;;;;;;;;;;11.17;62.40;103343.91;5058930;28;20011;-84
2022/01/17 07:04:04;;;;;;;;;;;;;;;11.56;60.97;103363.38;5057729;28;20469;-84
2022/01/17 07:06:29;;;;;;;;;;;;;;;11.28;61.41;103373.66;5058407;28;19939;-83
2022/01/17 07:08:54;;;;;;;;;;;;;;;11.65;60.98;103368.69;5058397;28;19974;-84
2022/01/17 07:11:19;;;;;;;;;;;;;;;11.25;61.64;103357.41;5056097;28;19921;-84
2022/01/17 07:13:45;;;;;;;;;;;;;;;11.20;61.58;103354.72;5058575;28;19924;-83
2022/01/17 07:16:10;;;;;;;;;;;;;;;11.40;61.02;103356.31;5056892;28;19921;-85
2022/01/17 07:18:35;;;;;;;;;;;;;;;11.02;62.32;103361.25;5057534;28;19924;-84
2022/01/17 07:21:01;;;;;;;;;;;;;;;11.60;60.02;103358.84;5057891;28;19916;-83
2022/01/17 07:23:27;;;;;;;;;;;;;;;11.49;60.23;103356.25;5060629;28;19925;-83
2022/01/17 07:25:53;;;;;;;;;;;;;;;11.45;60.34;103349.06;5060477;28;19939;-85
2022/01/17 07:28:18;;;;;;;;;;;;;;;11.48;60.13;103355.34;5058994;28;19916;-84
2022/01/17 07:30:43;;;;;;;;;;;;;;;11.57;60.52;103364.28;5058802;28;19924;-83
2022/01/17 07:33:09;;;;;;;;;;;;;;;11.60;59.49;103367.88;5058969;28;19924;-83
2022/01/17 07:35:34;;;;;;;;;;;;;;;11.67;59.56;103383.16;5057915;28;19983;-85
2022/01/17 07:38:00;;;;;;;;;;;;;;;11.30;61.29;103388.94;5058023;28;20286;-82
2022/01/17 07:40:25;;;;;;;;;;;;;;;11.50;60.31;103399.63;5058382;28;19970;-83
2022/01/17 07:42:51;;;;;;;;;;;;;;;11.46;60.49;103388.81;5057787;28;19924;-82
2022/01/17 07:45:18;;;;;;;;;;;;;;;11.81;60.34;103401.09;5069310;28;19920;-83
2022/01/17 07:47:56;;;;;;;;;;;;;;;11.53;60.26;103391.44;5060256;28;19947;-83
2022/01/17 07:50:23;;;;;;;;;;;;;;;11.75;59.97;103393.03;5059306;28;19916;-84
2022/01/17 07:52:49;;;;;;;;;;;;;;;11.87;59.38;103401.88;5059077;28;19971;-83
2022/01/17 07:55:15;;;;;;;;;;;;;;;12.07;58.55;103402.59;5059631;28;19916;-85
2022/01/17 07:57:43;;;;;;;;;;;;;;;11.53;60.56;103404.09;5060417;28;20354;-83
2022/01/17 08:00:10;;;;;;;;;;;;;;;11.25;61.90;103407.06;5060014;28;19917;-83
2022/01/17 08:02:35;;;;;;;;;;;;;;;11.72;60.12;103406.63;5079083;28;19939;-85
2022/01/17 08:05:01;;;;;;;;;;;;;;;11.65;60.84;103395.81;5060034;28;20370;-84
2022/01/17 08:07:26;;;;;;;;;;;;;;;12.40;58.42;103403.97;5058948;28;19923;-84
2022/01/17 08:09:51;;;;;;;;;;;;;;;11.41;60.97;103406.91;5058984;28;19916;-83
2022/01/17 08:12:16;;;;;;;;;;;;;;;11.73;60.34;103408.38;5059115;28;19924;-84
2022/01/17 08:14:42;;;;;;;;;;;;;;;11.25;62.43;103417.91;5058709;28;20386;-84
2022/01/17 08:17:10;;;;;;;;;;;;;;;11.80;62.29;103416.44;5059008;28;20374;-84
2022/01/17 08:19:36;;;;;;;;;;;;;;;12.35;58.80;103411.25;5058449;28;19916;-83
2022/01/17 08:22:02;;;;;;;;;;;;;;;12.11;59.36;103412.47;5057619;28;19939;-83
2022/01/17 08:24:28;;;;;;;;;;;;;;;12.43;59.32;103417.50;5058412;28;19928;-84
2022/01/17 08:26:53;;;;;;;;;;;;;;;11.88;61.06;103422.69;5075778;28;20323;-83
2022/01/17 08:29:18;;;;;;;;;;;;;;;12.44;59.96;103429.25;5059641;28;19916;-84
2022/01/17 08:31:46;;;;;;;;;;;;;;;12.59;58.78;103424.50;5061992;28;20366;-83
2022/01/17 08:34:11;;;;;;;;;;;;;;;12.17;59.48;103415.16;5058664;28;19988;-84
2022/01/17 08:36:37;;;;;;;;;;;;;;;12.21;60.13;103404.22;5058165;28;20343;-84
2022/01/17 08:39:02;;;;;;;;;;;;;;;12.45;59.49;103409.31;5057377;28;20343;-83
2022/01/17 08:41:27;;;;;;;;;;;;;;;12.24;59.47;103405.97;5076178;28;19952;-83
2022/01/17 08:43:52;;;;;;;;;;;;;;;12.32;59.12;103406.78;5076292;28;19916;-83
2022/01/17 08:46:18;;;;;;;;;;;;;;;12.34;59.26;103404.94;5058468;28;19920;-84
2022/01/17 08:48:43;;;;;;;;;;;;;;;12.69;58.30;103414.38;5075804;28;19924;-82
2022/01/17 08:51:08;;;;;;;;;;;;;;;12.52;58.07;103421.91;5057869;28;19924;-82
2022/01/17 08:53:34;;;;;;;;;;;;;;;12.13;59.99;103413.38;5057093;28;20438;-84
2022/01/17 08:56:00;;;;;;;;;;;;;;;13.06;58.23;103429.22;5076129;28;20058;-84
2022/01/17 08:58:25;;;;;;;;;;;;;;;12.68;59.14;103433.41;5058818;28;19955;-83
2022/01/17 09:00:50;;;;;;;;;;;;;;;12.97;57.91;103430.25;5059794;28;19916;-84
2022/01/17 09:03:16;;;;;;;;;;;;;;;12.92;58.46;103438.50;5077865;28;19922;-84
2022/01/17 09:05:42;;;;;;;;;;;;;;;13.13;58.04;103447.19;5058334;28;20354;-83
2022/01/17 09:08:08;;;;;;;;;;;;;;;12.76;58.08;103437.81;5057734;28;19962;-86
2022/01/17 09:10:34;;;;;;;;;;;;;;;12.79;58.90;103444.13;5058003;28;19921;-84
2022/01/17 09:12:59;;;;;;;;;;;;;;;12.54;60.30;103447.19;5059730;28;19938;-85
2022/01/17 09:15:25;;;;;;;;;;;;;;;12.31;60.54;103451.13;5060391;28;20475;-85
2022/01/17 09:17:50;;;;;;;;;;;;;;;12.96;59.49;103458.34;5058850;28;20342;-85
2022/01/17 09:20:15;;;;;;;;;;;;;;;12.64;59.80;103467.00;5059529;28;20006;-86
2022/01/17 09:22:40;;;;;;;;;;;;;;;12.27;61.90;103473.78;5077738;28;19928;-84
2022/01/17 09:25:07;;;;;;;;;;;;;;;12.11;62.93;103480.31;5059277;28;20015;-85
2022/01/17 09:27:33;;;;;;;;;;;;;;;12.68;60.31;103477.78;5060058;28;20004;-82
2022/01/17 09:29:58;;;;;;;;;;;;;;;13.18;59.36;103482.47;5060381;28;20366;-85
2022/01/17 09:32:23;;;;;;;;;;;;;;;13.25;58.46;103479.59;5059010;28;20294;-85
2022/01/17 09:34:48;;;;;;;;;;;;;;;12.84;59.67;103488.44;5079893;28;19959;-86
2022/01/17 09:37:14;;;;;;;;;;;;;;;13.43;57.74;103478.44;5078662;28;19956;-84
2022/01/17 09:39:39;;;;;;;;;;;;;;;12.76;60.79;103477.69;5077949;28;19923;-86
2022/01/17 09:42:05;;;;;;;;;;;;;;;12.38;61.54;103484.53;5059748;28;19924;-85
2022/01/17 09:44:31;;;;;;;;;;;;;;;12.25;62.53;103486.50;5060069;28;19927;-85
2022/01/17 09:46:57;;;;;;;;;;;;;;;12.43;61.80;103489.91;5060676;28;19916;-85
2022/01/17 09:49:30;;;;;;;;;;;;;;;12.49;61.55;103482.56;5060632;28;19923;-84
2022/01/17 09:54:25;;;;;;;;;;;;;;;12.97;60.17;103491.84;5067130;28;19932;-84
2022/01/17 09:56:55;;;;;;;;;;;;;;;12.55;60.82;103498.78;5056248;28;19927;-85
2022/01/17 09:59:21;;;;;;;;;;;;;;;12.45;62.46;103510.66;5039719;28;19916;-85
2022/01/17 10:01:46;;;;;;;;;;;;;;;12.69;61.55;103501.28;5037744;28;20413;-82
2022/01/17 10:04:13;;;;;;;;;;;;;;;13.06;60.00;103517.06;5057879;28;19917;-84
2022/01/17 10:06:39;;;;;;;;;;;;;;;12.67;60.79;103521.28;5060811;28;19923;-84
2022/01/17 10:09:09;;;;;;;;;;;;;;;12.30;62.03;103513.59;5062447;28;20018;-84
2022/01/17 10:11:34;;;;;;;;;;;;;;;12.45;62.66;103518.81;5063733;28;19912;-85
2022/01/17 10:14:01;;;;;;;;;;;;;;;12.69;61.42;103514.88;5064036;28;19912;-86
2022/01/17 10:16:29;;;;;;;;;;;;;;;12.86;61.02;103513.75;5063484;28;19920;-86
2022/01/17 10:18:56;;;;;;;;;;;;;;;13.15;60.75;103532.34;5063187;28;19917;-87
2022/01/17 10:21:53;;;;;;;;;;;;;;;12.83;61.43;103520.16;5063178;28;19916;-84
2022/01/17 10:27:13;;;;;;;;;;;;;;;12.40;62.26;103531.56;5079561;28;19922;-80
2022/01/17 10:35:20;;;;;;;;;;;;;;;12.98;62.21;103543.44;5080607;28;20008;-82
2022/01/17 10:37:55;;;;;;;;;;;;;;;12.37;63.17;103534.31;5062408;28;19916;-84
2022/01/17 10:40:20;;;;;;;;;;;;;;;12.29;63.59;103539.84;5062903;28;19924;-84
2022/01/17 10:42:47;;;;;;;;;;;;;;;12.29;63.18;103534.41;5080779;28;19916;-84
2022/01/17 10:45:17;;;;;;;;;;;;;;;12.41;63.33;103539.69;5058509;28;20294;-84
2022/01/17 10:47:43;;;;;;;;;;;;;;;12.18;64.01;103537.25;5074995;28;19917;-84
2022/01/17 10:50:09;;;;;;;;;;;;;;;13.05;61.55;103536.13;5060888;28;19913;-84
2022/01/17 10:52:34;;;;;;;;;;;;;;;12.81;60.64;103531.94;5059022;28;19932;-86
2022/01/17 10:55:03;;;;;;;;;;;;;;;12.61;61.38;103545.81;5059866;28;19927;-85
2022/01/17 10:57:33;;;;;;;;;;;;;;;12.69;61.63;103546.59;5060897;28;19923;-86
2022/01/17 10:59:58;;;;;;;;;;;;;;;12.45;62.49;103553.22;5060490;28;20015;-85
2022/01/17 11:02:26;;;;;;;;;;;;;;;12.36;63.18;103552.41;5057325;28;19956;-85
2022/01/17 11:04:52;;;;;;;;;;;;;;;12.96;60.78;103552.56;5057127;28;19917;-84
2022/01/17 11:07:17;;;;;;;;;;;;;;;12.74;61.07;103553.75;5056631;28;20338;-86
2022/01/17 11:09:46;;;;;;;;;;;;;;;13.37;59.23;103567.38;5057829;28;19917;-86
2022/01/17 11:12:12;;;;;;;;;;;;;;;13.18;60.50;103569.44;5059186;28;19924;-84
2022/01/17 11:14:40;;;;;;;;;;;;;;;13.17;59.62;103573.09;5057735;28;19917;-85
2022/01/17 11:17:38;;;;;;;;;;;;;;;12.74;61.81;103572.78;5057807;28;19943;-85
2022/01/17 11:20:07;;;;;;;;;;;;;;;12.89;61.97;103584.34;5058114;28;19923;-88
2022/01/17 11:22:36;;;;;;;;;;;;;;;13.07;60.98;103577.75;5057778;28;19921;-87
2022/01/17 11:25:03;;;;;;;;;;;;;;;13.22;60.07;103576.63;5057563;28;19974;-85
2022/01/17 11:27:28;;;;;;;;;;;;;;;12.74;61.45;103580.91;5056884;28;19923;-85
2022/01/17 11:29:55;;;;;;;;;;;;;;;14.03;57.62;103570.81;5060577;28;20532;-84
2022/01/17 11:32:22;;;;;;;;;;;;;;;12.66;61.36;103571.97;5058403;28;19921;-85
2022/01/17 11:34:47;;;;;;;;;;;;;;;12.71;61.12;103575.53;5059126;28;20008;-86
2022/01/17 11:37:13;;;;;;;;;;;;;;;12.84;60.65;103567.22;5058065;28;19952;-84
2022/01/17 11:39:49;;;;;;;;;;;;;;;12.59;62.54;103576.59;5075349;28;20003;-85
2022/01/17 11:42:29;;;;;;;;;;;;;;;12.28;63.14;103580.56;5059077;28;19924;-83
2022/01/17 11:44:54;;;;;;;;;;;;;;;12.59;63.18;103581.09;5067119;28;19921;-83
2022/01/17 11:47:38;;;;;;;;;;;;;;;12.71;63.01;103580.03;5061515;28;19927;-84
2022/01/17 11:50:22;;;;;;;;;;;;;;;12.00;65.00;103581.75;5062123;28;19917;-86
2022/01/17 11:52:47;;;;;;;;;;;;;;;12.54;63.62;103593.84;5061281;28;19925;-85
2022/01/17 11:55:32;;;;;;;;;;;;;;;12.90;61.89;103595.19;5079283;28;19939;-85
2022/01/17 11:58:15;;;;;;;;;;;;;;;12.27;63.99;103598.66;5078790;28;20310;-85
2022/01/17 12:00:41;;;;;;;;;;;;;;;11.81;66.13;103608.09;5061356;28;19946;-84
2022/01/17 12:03:19;;;;;;;;;;;;;;;12.31;63.92;103610.41;5061136;28;19921;-85
2022/01/17 12:05:45;;;;;;;;;;;;;;;12.40;63.26;103618.44;5063224;28;19916;-85
2022/01/17 12:08:11;;;;;;;;;;;;;;;13.04;62.42;103618.56;5080257;28;19931;-84
2022/01/17 12:11:00;;;;;;;;;;;;;;;12.73;62.52;103616.25;5079393;28;19916;-83
2022/01/17 12:13:42;;;;;;;;;;;;;;;12.75;62.44;103614.41;5068159;28;19904;-86
2022/01/17 12:16:10;;;;;;;;;;;;;;;12.47;63.60;103614.75;5060777;28;19923;-83
2022/01/17 12:18:37;;;;;;;;;;;;;;;12.60;62.93;103599.19;5059425;28;19934;-81
2022/01/17 12:21:21;;;;;;;;;;;;;;;12.76;63.01;103589.94;5059539;28;19916;-79
2022/01/17 12:23:46;;;;;;;;;;;;;;;12.75;63.62;103573.66;5077909;28;19931;-82
2022/01/17 12:26:44;;;;;;;;;;;;;;;12.47;63.92;103567.66;5076950;28;19916;-82
2022/01/17 12:29:09;;;;;;;;;;;;;;;12.39;64.14;103562.34;5033127;28;19912;-84
2022/01/17 12:31:41;;;;;;;;;;;;;;;12.52;64.39;103564.00;5059522;28;19917;-80
2022/01/17 12:34:24;;;;;;;;;;;;;;;12.55;63.75;103598.38;5058642;28;19956;-81
2022/01/17 12:36:54;;;;;;;;;;;;;;;12.50;63.85;103608.34;5060008;28;20003;-82
2022/01/17 12:39:21;;;;;;;;;;;;;;;12.73;64.01;103609.00;5059726;28;19916;-80
2022/01/17 12:41:48;;;;;;;;;;;;;;;12.88;61.96;103594.31;5058855;28;19924;-82
2022/01/17 12:44:16;;;;;;;;;;;;;;;12.63;63.49;103599.16;5077594;28;20023;-82
2022/01/17 12:46:42;;;;;;;;;;;;;;;12.60;63.13;103607.34;5077110;28;19924;-84
2022/01/17 12:49:08;;;;;;;;;;;;;;;12.58;63.14;103610.06;5056961;28;19931;-82
2022/01/17 12:51:33;;;;;;;;;;;;;;;12.91;62.28;103606.97;5056786;28;19920;-83
2022/01/17 12:54:02;;;;;;;;;;;;;;;12.74;62.70;103602.66;5058085;28;19935;-82
2022/01/17 12:56:32;;;;;;;;;;;;;;;13.10;61.37;103578.63;5073356;28;19970;-82
2022/01/17 12:58:59;;;;;;;;;;;;;;;12.92;61.60;103584.28;5054150;28;19920;-82
2022/01/17 13:01:25;;;;;;;;;;;;;;;13.14;61.68;103584.03;5073066;28;19979;-82
2022/01/17 13:03:50;;;;;;;;;;;;;;;13.35;60.69;103585.56;5056644;28;21383;-82
2022/01/17 13:06:17;;;;;;;;;;;;;;;13.19;60.60;103573.97;5057431;28;20276;-82
2022/01/17 13:08:43;;;;;;;;;;;;;;;13.62;60.23;103573.34;5075767;28;19978;-82